createdAt,value
2022-11-07T00:00:17.391Z,0.43
2022-11-07T00:02:45.584Z,0.80
2022-11-07T00:05:13.768Z,0.60
2022-11-07T00:07:43.308Z,0.65
2022-11-07T00:10:11.540Z,0.73
2022-11-07T00:12:39.635Z,0.50
2022-11-07T00:15:10.500Z,0.73
2022-11-07T00:17:38.678Z,0.93
2022-11-07T00:20:07.602Z,0.50
2022-11-07T00:22:35.706Z,0.43
2022-11-07T00:25:05.227Z,0.70
2022-11-07T00:27:33.422Z,0.50
2022-11-07T00:30:01.610Z,0.80
2022-11-07T00:32:29.740Z,0.47
2022-11-07T00:34:57.873Z,0.60
2022-11-07T00:37:25.984Z,0.45
2022-11-07T00:39:54.081Z,0.60
2022-11-07T00:42:23.539Z,0.47
2022-11-07T00:44:51.700Z,0.60
2022-11-07T00:47:19.817Z,0.47
2022-11-07T00:49:47.936Z,0.52
2022-11-07T00:52:16.069Z,0.50
2022-11-07T00:54:44.445Z,0.50
2022-11-07T00:57:12.665Z,0.47
2022-11-07T00:59:42.166Z,0.55
2022-11-07T01:02:10.313Z,0.68
2022-11-07T01:04:56.727Z,0.57
2022-11-07T01:07:24.823Z,0.60
2022-11-07T01:09:52.934Z,0.80
2022-11-07T01:12:21.060Z,0.47
2022-11-07T01:14:50.548Z,0.57
2022-11-07T01:17:18.698Z,0.75
2022-11-07T01:19:46.884Z,0.70
2022-11-07T01:22:15.076Z,0.38
2022-11-07T01:24:43.203Z,0.60
2022-11-07T01:27:11.325Z,0.20
2022-11-07T01:29:39.512Z,0.68
2022-11-07T01:32:09.012Z,0.70
2022-11-07T01:34:37.120Z,0.40
2022-11-07T01:37:05.288Z,0.30
2022-11-07T01:39:33.367Z,0.45
2022-11-07T01:42:01.534Z,0.40
2022-11-07T01:44:48.109Z,0.47
2022-11-07T01:47:17.721Z,0.50
2022-11-07T01:49:45.954Z,0.45
2022-11-07T01:52:16.696Z,0.30
2022-11-07T01:54:47.179Z,0.60
2022-11-07T01:57:17.372Z,0.50
2022-11-07T01:59:45.572Z,0.60
2022-11-07T02:02:13.790Z,0.60
2022-11-07T02:04:43.459Z,0.60
2022-11-07T02:07:14.869Z,0.47
2022-11-07T02:09:43.521Z,0.55
2022-11-07T02:12:11.619Z,0.47
2022-11-07T02:14:39.772Z,0.57
2022-11-07T02:17:07.883Z,0.40
2022-11-07T02:19:37.512Z,0.30
2022-11-07T02:22:11.556Z,0.35
2022-11-07T02:24:41.901Z,0.40
2022-11-07T02:27:12.144Z,0.60
2022-11-07T02:29:42.080Z,0.60
2022-11-07T02:32:11.139Z,0.45
2022-11-07T02:34:39.405Z,0.40
2022-11-07T02:37:08.671Z,0.50
2022-11-07T02:39:36.860Z,0.30
2022-11-07T02:42:06.467Z,0.40
2022-11-07T02:44:35.264Z,0.45
2022-11-07T02:47:03.387Z,0.47
2022-11-07T02:49:31.487Z,0.40
2022-11-07T02:51:59.706Z,0.55
2022-11-07T02:54:27.846Z,0.68
2022-11-07T02:56:55.928Z,0.45
2022-11-07T02:59:27.176Z,0.50
2022-11-07T03:01:55.658Z,0.40
2022-11-07T03:04:24.746Z,0.45
2022-11-07T03:06:52.856Z,0.60
2022-11-07T03:09:20.962Z,0.30
2022-11-07T03:11:49.100Z,0.60
2022-11-07T03:14:17.359Z,0.40
2022-11-07T03:16:46.798Z,0.88
2022-11-07T03:19:14.923Z,0.50
2022-11-07T03:21:43.040Z,0.30
2022-11-07T03:24:11.250Z,0.60
2022-11-07T03:26:39.368Z,0.40
2022-11-07T03:29:07.475Z,0.57
2022-11-07T03:31:35.818Z,0.55
2022-11-07T03:34:05.274Z,0.55
2022-11-07T03:36:34.029Z,0.57
2022-11-07T03:39:02.282Z,0.28
2022-11-07T03:41:30.727Z,0.40
2022-11-07T03:43:58.881Z,0.28
2022-11-07T03:46:26.991Z,0.30
2022-11-07T03:48:55.136Z,0.30
2022-11-07T03:51:24.592Z,0.60
2022-11-07T03:53:52.771Z,0.40
2022-11-07T03:56:20.874Z,0.30
2022-11-07T03:58:48.993Z,0.50
2022-11-07T04:01:17.195Z,0.50
2022-11-07T04:03:45.412Z,0.32
2022-11-07T04:06:13.610Z,0.60
2022-11-07T04:08:43.087Z,0.47
2022-11-07T04:11:31.573Z,0.52
2022-11-07T04:14:17.260Z,0.40
2022-11-07T04:17:03.021Z,0.50
2022-11-07T04:19:34.208Z,0.50
2022-11-07T04:24:31.644Z,0.60
2022-11-07T04:27:17.454Z,0.25
2022-11-07T04:29:45.588Z,0.52
2022-11-07T04:32:13.749Z,0.30
2022-11-07T04:34:41.876Z,0.50
2022-11-07T04:37:09.976Z,0.40
2022-11-07T04:39:39.436Z,0.75
2022-11-07T04:42:07.609Z,0.40
2022-11-07T04:44:35.796Z,0.45
2022-11-07T04:47:03.967Z,0.40
2022-11-07T04:49:32.086Z,0.60
2022-11-07T04:52:00.197Z,0.40
2022-11-07T04:54:28.303Z,0.70
2022-11-07T04:56:57.851Z,0.32
2022-11-07T04:59:25.956Z,0.45
2022-11-07T05:01:54.124Z,0.60
2022-11-07T05:04:22.373Z,0.60
2022-11-07T05:06:50.484Z,0.40
2022-11-07T05:09:19.165Z,0.52
2022-11-07T05:11:47.288Z,0.47
2022-11-07T05:14:16.756Z,0.45
2022-11-07T05:16:45.220Z,0.47
2022-11-07T05:19:14.681Z,0.43
2022-11-07T05:21:42.792Z,0.40
2022-11-07T05:24:09.975Z,0.50
2022-11-07T05:26:38.152Z,0.65
2022-11-07T05:29:06.321Z,0.50
2022-11-07T05:31:35.865Z,0.50
2022-11-07T05:34:04.033Z,0.30
2022-11-07T05:36:32.159Z,0.50
2022-11-07T05:39:00.435Z,0.60
2022-11-07T05:41:28.548Z,0.40
2022-11-07T05:43:56.656Z,0.30
2022-11-07T05:46:24.784Z,0.50
2022-11-07T05:48:58.081Z,0.43
2022-11-07T05:51:28.911Z,0.60
2022-11-07T05:53:57.051Z,0.52
2022-11-07T05:56:25.227Z,0.43
2022-11-07T05:58:53.348Z,0.50
2022-11-07T06:01:21.211Z,0.30
2022-11-07T06:03:49.143Z,0.47
2022-11-07T06:06:18.288Z,0.50
2022-11-07T06:08:46.056Z,0.90
2022-11-07T06:11:13.817Z,0.40
2022-11-07T06:13:41.596Z,0.60
2022-11-07T06:16:09.719Z,0.60
2022-11-07T06:18:41.832Z,0.57
2022-11-07T06:21:09.878Z,0.40
2022-11-07T06:23:39.024Z,0.40
2022-11-07T06:26:06.877Z,0.60
2022-11-07T06:28:34.717Z,0.70
2022-11-07T06:31:03.253Z,0.55
2022-11-07T06:33:31.691Z,0.63
2022-11-07T06:36:07.142Z,0.65
2022-11-07T06:38:35.305Z,0.55
2022-11-07T06:41:09.197Z,0.75
2022-11-07T06:43:37.577Z,0.50
2022-11-07T06:46:07.668Z,0.55
2022-11-07T06:48:35.512Z,0.60
2022-11-07T06:51:05.579Z,0.93
2022-11-07T06:53:33.728Z,0.85
2022-11-07T06:56:02.738Z,0.77
2022-11-07T06:58:32.011Z,0.50
2022-11-07T07:01:02.257Z,0.57
2022-11-07T07:03:30.465Z,0.73
2022-11-07T07:06:02.785Z,0.60
2022-11-07T07:08:30.653Z,0.40
2022-11-07T07:11:03.365Z,0.40
2022-11-07T07:13:32.517Z,0.30
2022-11-07T07:16:00.384Z,0.22
2022-11-07T07:18:29.043Z,0.40
2022-11-07T07:21:04.550Z,0.45
2022-11-07T07:23:33.110Z,0.40
2022-11-07T07:26:01.044Z,0.40
2022-11-07T07:28:29.098Z,0.63
2022-11-07T07:31:10.145Z,0.35
2022-11-07T07:33:38.109Z,0.30
2022-11-07T07:36:06.848Z,0.45
2022-11-07T07:38:34.761Z,0.43
2022-11-07T07:41:02.851Z,0.55
2022-11-07T07:43:31.378Z,0.63
2022-11-07T07:45:59.919Z,0.47
2022-11-07T07:48:29.117Z,0.32
2022-11-07T07:50:57.104Z,0.50
2022-11-07T07:53:25.092Z,0.57
2022-11-07T07:55:57.849Z,0.60
2022-11-07T07:58:26.007Z,0.28
2022-11-07T08:00:54.545Z,0.52
2022-11-07T08:03:22.400Z,0.25
2022-11-07T08:05:55.246Z,0.57
2022-11-07T08:08:23.845Z,0.57
2022-11-07T08:10:54.263Z,0.38
2022-11-07T08:13:24.052Z,0.80
2022-11-07T08:15:52.950Z,0.47
2022-11-07T08:18:22.578Z,0.50
2022-11-07T08:20:51.573Z,0.65
2022-11-07T08:23:21.522Z,0.50
2022-11-07T08:25:54.272Z,0.70
2022-11-07T08:28:23.687Z,0.75
2022-11-07T08:30:58.573Z,0.68
2022-11-07T08:33:26.607Z,0.40
2022-11-07T08:35:55.600Z,0.47
2022-11-07T08:38:24.880Z,0.57
2022-11-07T08:40:53.152Z,0.43
2022-11-07T08:43:21.174Z,0.60
2022-11-07T08:45:50.113Z,0.35
2022-11-07T08:48:18.824Z,0.50
2022-11-07T08:50:46.806Z,0.40
2022-11-07T08:53:14.646Z,0.63
2022-11-07T08:55:43.740Z,0.50
2022-11-07T08:58:12.565Z,0.55
2022-11-07T09:00:40.649Z,0.60
2022-11-07T09:05:59.542Z,0.73
2022-11-07T09:08:27.338Z,0.50
2022-11-07T09:10:56.538Z,0.60
2022-11-07T09:13:24.362Z,0.30
2022-11-07T09:15:52.178Z,0.40
2022-11-07T09:18:20.720Z,0.38
2022-11-07T09:20:48.529Z,0.20
2022-11-07T09:23:16.631Z,0.57
2022-11-07T09:25:44.784Z,0.70
2022-11-07T09:28:14.167Z,0.20
2022-11-07T09:30:41.977Z,0.70
2022-11-07T09:33:09.896Z,0.60
2022-11-07T09:35:37.904Z,0.50
2022-11-07T09:38:06.179Z,0.35
2022-11-07T09:40:44.398Z,0.35
2022-11-07T09:43:34.086Z,0.40
2022-11-07T09:46:10.642Z,0.40
2022-11-07T09:48:43.983Z,0.32
2022-11-07T09:51:16.539Z,0.30
2022-11-07T09:53:48.582Z,0.32
2022-11-07T09:56:17.196Z,0.45
2022-11-07T09:58:51.469Z,0.22
2022-11-07T10:01:22.412Z,0.30
2022-11-07T10:04:23.137Z,0.40
2022-11-07T10:06:45.765Z,0.40
2022-11-07T10:09:19.300Z,0.30
2022-11-07T10:11:54.510Z,0.52
2022-11-07T10:14:35.718Z,0.45
2022-11-07T10:17:11.552Z,0.57
2022-11-07T10:19:53.769Z,0.65
2022-11-07T10:22:32.449Z,0.60
2022-11-07T10:25:15.378Z,0.38
2022-11-07T10:27:45.081Z,0.85
2022-11-07T10:30:19.436Z,0.30
2022-11-07T10:32:54.811Z,0.17
2022-11-07T10:35:28.869Z,0.45
2022-11-07T10:37:58.130Z,0.60
2022-11-07T10:40:33.445Z,0.40
2022-11-07T10:43:04.124Z,0.22
2022-11-07T10:45:33.906Z,0.22
2022-11-07T10:48:05.516Z,0.35
2022-11-07T10:50:33.420Z,0.40
2022-11-07T10:53:03.337Z,0.40
2022-11-07T10:55:42.834Z,0.17
2022-11-07T10:58:20.894Z,0.50
2022-11-07T11:01:01.591Z,0.10
2022-11-07T11:03:43.318Z,0.38
2022-11-07T11:06:20.705Z,0.52
2022-11-07T11:08:50.038Z,0.60
2022-11-07T11:11:28.049Z,0.30
2022-11-07T11:14:03.905Z,0.40
2022-11-07T11:16:37.857Z,0.45
2022-11-07T11:19:07.287Z,0.20
2022-11-07T11:21:44.427Z,0.73
2022-11-07T11:24:32.403Z,0.13
2022-11-07T11:27:04.658Z,0.30
2022-11-07T11:29:39.998Z,0.25
2022-11-07T11:32:18.059Z,0.32
2022-11-07T11:34:54.677Z,0.30
2022-11-07T11:37:24.167Z,0.75
2022-11-07T11:40:05.256Z,0.40
2022-11-07T11:42:40.341Z,0.40
2022-11-07T11:45:20.226Z,0.45
2022-11-07T11:48:00.035Z,0.45
2022-11-07T11:50:33.960Z,0.57
2022-11-07T11:53:01.991Z,0.55
2022-11-07T11:55:38.690Z,0.30
2022-11-07T11:58:16.744Z,0.38
2022-11-07T12:00:54.687Z,0.40
2022-11-07T12:03:41.799Z,0.60
2022-11-07T12:06:15.322Z,0.47
2022-11-07T12:09:03.526Z,0.20
2022-11-07T12:11:38.101Z,0.40
2022-11-07T12:14:24.246Z,0.43
2022-11-07T12:16:58.324Z,0.50
2022-11-07T12:19:33.998Z,0.65
2022-11-07T12:22:12.910Z,0.57
2022-11-07T12:24:47.681Z,0.35
2022-11-07T12:27:26.899Z,0.40
2022-11-07T12:30:06.002Z,0.30
2022-11-07T12:32:47.361Z,0.28
2022-11-07T12:35:33.922Z,0.40
2022-11-07T12:38:17.449Z,0.30
2022-11-07T12:40:54.070Z,0.40
2022-11-07T12:43:34.969Z,0.70
2022-11-07T12:46:10.388Z,0.63
2022-11-07T12:49:15.470Z,0.28
2022-11-07T12:51:55.578Z,0.20
2022-11-07T12:54:45.434Z,0.90
2022-11-07T12:57:19.090Z,0.45
2022-11-07T12:59:53.633Z,0.20
2022-11-07T13:02:48.221Z,0.28
2022-11-07T13:05:35.353Z,0.40
2022-11-07T13:08:11.414Z,0.38
2022-11-07T13:10:49.626Z,0.30
2022-11-07T13:13:22.430Z,0.30
2022-11-07T13:16:14.166Z,0.20
2022-11-07T13:18:38.016Z,0.30
2022-11-07T13:21:07.535Z,0.13
2022-11-07T13:23:36.714Z,0.20
2022-11-07T13:26:26.232Z,0.32
2022-11-07T13:28:59.626Z,0.20
2022-11-07T13:31:36.563Z,0.20
2022-11-07T13:34:11.965Z,0.60
2022-11-07T13:36:40.390Z,0.52
2022-11-07T13:39:14.028Z,0.30
2022-11-07T13:41:44.489Z,0.35
2022-11-07T13:44:19.877Z,0.47
2022-11-07T13:46:51.761Z,0.20
2022-11-07T13:49:23.605Z,0.20
2022-11-07T13:51:53.703Z,0.20
2022-11-07T13:54:28.757Z,0.28
2022-11-07T13:57:00.575Z,0.30
2022-11-07T13:59:37.877Z,0.30
2022-11-07T14:02:06.453Z,0.40
2022-11-07T14:05:02.473Z,0.60
2022-11-07T14:07:35.509Z,0.50
2022-11-07T14:10:08.001Z,0.30
2022-11-07T14:12:38.892Z,0.52
2022-11-07T14:15:14.313Z,0.40
2022-11-07T14:17:42.746Z,0.63
2022-11-07T14:20:16.688Z,0.50
2022-11-07T14:22:53.038Z,0.32
2022-11-07T14:25:26.191Z,0.40
2022-11-07T14:27:54.169Z,0.40
2022-11-07T14:30:23.989Z,0.40
2022-11-07T14:32:53.704Z,0.50
2022-11-07T14:35:24.469Z,0.22
2022-11-07T14:37:52.407Z,0.50
2022-11-07T14:40:21.268Z,0.55
2022-11-07T14:42:50.703Z,0.38
2022-11-07T14:45:39.227Z,0.40
2022-11-07T14:48:11.221Z,0.35
2022-11-07T14:50:39.749Z,0.35
2022-11-07T14:53:11.854Z,0.30
2022-11-07T14:55:44.922Z,0.55
2022-11-07T14:58:16.237Z,0.30
2022-11-07T15:00:52.695Z,0.68
2022-11-07T15:03:22.596Z,0.63
2022-11-07T15:05:50.710Z,0.45
2022-11-07T15:08:29.565Z,0.50
2022-11-07T15:11:08.831Z,0.50
2022-11-07T15:13:38.097Z,0.38
2022-11-07T15:16:08.764Z,0.35
2022-11-07T15:18:42.594Z,0.25
2022-11-07T15:21:13.117Z,0.40
2022-11-07T15:23:40.966Z,0.30
2022-11-07T15:26:13.558Z,0.50
2022-11-07T15:28:48.511Z,0.47
2022-11-07T15:31:22.277Z,0.45
2022-11-07T15:33:50.099Z,0.35
2022-11-07T15:36:18.311Z,0.68
2022-11-07T15:38:46.711Z,0.57
2022-11-07T15:41:14.685Z,0.50
2022-11-07T15:43:42.609Z,0.60
2022-11-07T15:46:22.985Z,0.20
2022-11-07T15:48:50.989Z,0.50
2022-11-07T15:51:18.786Z,0.32
2022-11-07T15:53:46.678Z,0.20
2022-11-07T15:56:17.198Z,0.30
2022-11-07T15:58:45.128Z,0.52
2022-11-07T16:01:13.127Z,0.30
2022-11-07T16:03:42.300Z,0.40
2022-11-07T16:06:17.517Z,0.32
2022-11-07T16:08:45.479Z,0.57
2022-11-07T16:11:13.359Z,0.50
2022-11-07T16:13:41.184Z,0.50
2022-11-07T16:16:15.620Z,0.68
2022-11-07T16:18:46.689Z,0.65
2022-11-07T16:21:14.503Z,0.45
2022-11-07T16:23:43.092Z,0.50
2022-11-07T16:26:13.896Z,0.73
2022-11-07T16:28:42.283Z,0.82
2022-11-07T16:31:10.129Z,0.50
2022-11-07T16:33:37.950Z,0.60
2022-11-07T16:36:24.201Z,0.50
2022-11-07T16:38:52.096Z,0.57
2022-11-07T16:41:20.300Z,0.52
2022-11-07T16:43:48.664Z,0.70
2022-11-07T16:46:18.835Z,0.55
2022-11-07T16:48:48.798Z,0.50
2022-11-07T16:51:19.500Z,0.43
2022-11-07T16:53:47.295Z,0.60
2022-11-07T16:56:25.989Z,0.80
2022-11-07T16:58:54.321Z,0.60
2022-11-07T17:01:23.417Z,0.73
2022-11-07T17:03:51.617Z,1.35
2022-11-07T17:06:26.369Z,1.02
2022-11-07T17:08:58.309Z,1.67
2022-11-07T17:11:29.674Z,1.60
2022-11-07T17:13:57.474Z,1.27
2022-11-07T17:16:29.312Z,1.00
2022-11-07T17:18:57.385Z,0.88
2022-11-07T17:21:29.726Z,1.08
2022-11-07T17:23:58.618Z,0.90
2022-11-07T17:26:28.588Z,1.17
2022-11-07T17:28:57.018Z,1.02
2022-11-07T17:31:24.891Z,1.20
2022-11-07T17:33:52.727Z,1.30
2022-11-07T17:36:36.279Z,1.40
2022-11-07T17:39:10.955Z,1.33
2022-11-07T17:41:38.877Z,1.38
2022-11-07T17:44:06.696Z,1.77
2022-11-07T17:46:35.953Z,1.60
2022-11-07T17:49:07.862Z,1.58
2022-11-07T17:51:37.108Z,1.23
2022-11-07T17:54:05.624Z,1.40
2022-11-07T17:56:34.817Z,1.63
2022-11-07T17:59:05.333Z,1.58
2022-11-07T18:01:34.946Z,1.42
2022-11-07T18:04:03.423Z,1.90
2022-11-07T18:06:36.640Z,1.60
2022-11-07T18:09:05.953Z,2.00
2022-11-07T18:11:35.130Z,1.65
2022-11-07T18:14:03.669Z,2.22
2022-11-07T18:16:32.727Z,1.40
2022-11-07T18:19:01.637Z,2.05
2022-11-07T18:21:30.083Z,2.17
2022-11-07T18:23:59.657Z,1.80
2022-11-07T18:26:30.611Z,2.05
2022-11-07T18:29:02.689Z,2.08
2022-11-07T18:31:30.536Z,2.05
2022-11-07T18:33:59.406Z,2.22
2022-11-07T18:36:28.233Z,2.90
2022-11-07T18:38:56.021Z,1.80
2022-11-07T18:41:26.070Z,2.80
2022-11-07T18:43:54.205Z,3.08
2022-11-07T18:46:22.299Z,2.30
2022-11-07T18:48:50.632Z,2.20
2022-11-07T18:51:20.885Z,2.38
2022-11-07T18:53:49.601Z,2.37
2022-11-07T18:56:17.985Z,2.50
2022-11-07T18:58:47.938Z,2.20
2022-11-07T19:01:17.984Z,2.65
2022-11-07T19:03:46.687Z,2.30
2022-11-07T19:06:16.568Z,2.13
2022-11-07T19:08:47.219Z,2.17
2022-11-07T19:11:16.714Z,2.50
2022-11-07T19:13:46.575Z,2.55
2022-11-07T19:16:18.443Z,2.80
2022-11-07T19:18:49.638Z,2.80
2022-11-07T19:21:20.295Z,2.20
2022-11-07T19:23:48.762Z,3.20
2022-11-07T19:26:18.863Z,2.58
2022-11-07T19:28:47.035Z,2.75
2022-11-07T19:31:16.232Z,2.92
2022-11-07T19:33:44.849Z,3.05
2022-11-07T19:36:15.045Z,3.78
2022-11-07T19:38:43.262Z,4.05
2022-11-07T19:41:12.009Z,3.58
2022-11-07T19:43:42.269Z,4.43
2022-11-07T19:46:12.280Z,4.05
2022-11-07T19:48:41.407Z,4.57
2022-11-07T19:51:14.561Z,4.80
2022-11-07T19:53:46.197Z,4.50
2022-11-07T19:56:16.334Z,3.85
2022-11-07T19:58:44.204Z,4.07
2022-11-07T20:01:13.707Z,3.88
2022-11-07T20:03:45.986Z,3.70
2022-11-07T20:06:15.274Z,3.30
2022-11-07T20:08:46.050Z,3.97
2022-11-07T20:11:15.116Z,2.72
2022-11-07T20:13:43.271Z,2.33
2022-11-07T20:16:11.489Z,2.60
2022-11-07T20:18:40.820Z,1.92
2022-11-07T20:21:13.086Z,2.30
2022-11-07T20:23:41.359Z,2.30
2022-11-07T20:26:11.065Z,1.40
2022-11-07T20:28:39.158Z,1.85
2022-11-07T20:31:08.924Z,1.80
2022-11-07T20:33:36.706Z,1.92
2022-11-07T20:36:12.814Z,1.60
2022-11-07T20:38:41.869Z,1.80
2022-11-07T20:41:10.382Z,1.58
2022-11-07T20:43:39.391Z,1.88
2022-11-07T20:46:08.818Z,1.60
2022-11-07T20:48:37.832Z,1.73
2022-11-07T20:51:11.854Z,1.85
2022-11-07T20:53:40.192Z,1.15
2022-11-07T20:56:09.696Z,1.52
2022-11-07T20:58:40.753Z,1.33
2022-11-07T21:01:13.576Z,1.75
2022-11-07T21:03:41.542Z,1.10
2022-11-07T21:06:12.176Z,1.27
2022-11-07T21:08:40.129Z,1.10
2022-11-07T21:11:08.583Z,1.35
2022-11-07T21:13:36.676Z,0.80
2022-11-07T21:16:05.780Z,1.25
2022-11-07T21:18:33.806Z,1.58
2022-11-07T21:21:07.153Z,1.40
2022-11-07T21:23:37.659Z,1.27
2022-11-07T21:26:07.750Z,1.15
2022-11-07T21:28:36.882Z,1.13
2022-11-07T21:31:06.783Z,1.50
2022-11-07T21:33:34.689Z,1.23
2022-11-07T21:36:02.491Z,1.25
2022-11-07T21:38:30.354Z,1.60
2022-11-07T21:40:59.493Z,1.73
2022-11-07T21:43:27.302Z,1.50
2022-11-07T21:45:55.066Z,1.50
2022-11-07T21:48:22.855Z,1.70
2022-11-07T21:50:50.670Z,1.13
2022-11-07T21:53:18.832Z,1.08
2022-11-07T21:55:46.909Z,1.73
2022-11-07T21:58:16.029Z,1.70
2022-11-07T22:00:43.937Z,1.67
2022-11-07T22:03:11.977Z,1.60
2022-11-07T22:05:40.114Z,1.77
2022-11-07T22:08:07.955Z,2.13
2022-11-07T22:10:35.911Z,1.63
2022-11-07T22:13:05.205Z,1.70
2022-11-07T22:15:35.677Z,1.73
2022-11-07T22:18:03.490Z,1.33
2022-11-07T22:20:31.296Z,1.30
2022-11-07T22:22:59.815Z,1.63
2022-11-07T22:25:28.058Z,1.45
2022-11-07T22:27:55.945Z,1.27
2022-11-07T22:30:23.756Z,1.20
2022-11-07T22:32:53.246Z,1.00
2022-11-07T22:35:21.056Z,1.30
2022-11-07T22:37:48.802Z,1.08
2022-11-07T22:40:20.142Z,0.80
2022-11-07T22:42:48.270Z,1.00
2022-11-07T22:45:16.150Z,1.00
2022-11-07T22:47:43.936Z,0.77
2022-11-07T22:50:13.157Z,1.10
2022-11-07T22:52:41.000Z,0.45
2022-11-07T22:55:09.080Z,0.80
2022-11-07T22:57:36.885Z,0.80
2022-11-07T23:00:20.100Z,0.90
2022-11-07T23:02:49.259Z,1.30
2022-11-07T23:05:18.556Z,0.82
2022-11-07T23:07:49.269Z,1.02
2022-11-07T23:10:17.201Z,1.40
2022-11-07T23:12:45.176Z,1.02
2022-11-07T23:15:13.822Z,0.95
2022-11-07T23:17:41.771Z,0.60
2022-11-07T23:20:31.039Z,1.02
2022-11-07T23:23:01.616Z,0.95
2022-11-07T23:25:29.518Z,0.68
2022-11-07T23:27:57.272Z,1.10
2022-11-07T23:30:25.047Z,0.73
2022-11-07T23:32:52.843Z,0.80
2022-11-07T23:35:20.642Z,0.88
2022-11-07T23:37:50.001Z,0.80
2022-11-07T23:40:19.097Z,0.75
2022-11-07T23:42:46.902Z,0.60
2022-11-07T23:45:32.337Z,0.80
2022-11-07T23:48:19.007Z,0.75
2022-11-07T23:51:05.358Z,0.95
2022-11-07T23:53:51.086Z,0.65
2022-11-07T23:56:21.328Z,0.70
2022-11-07T23:59:07.182Z,1.20
